Time;durP1;ratioP1;P1;durP2;ratioP2;P2;SDS_P1;SDS_P2;PMS_P1;PMS_P2;Temp;Humidity;BMP_temperature;BMP_pressure;BME280_temperature;BME280_humidity;BME280_pressure;Samples;Min_cycle;Max_cycle;Signal;HPM_P1;HPM_P2
2022/05/04 00:02:13;;;;;;;7.32;2.58;;;18.30;72.50;;;;;;5056308;28;20041;-66
2022/05/04 00:05:01;;;;;;;7.18;2.10;;;18.20;76.10;;;;;;5034336;28;20476;-66
2022/05/04 00:08:06;;;;;;;6.93;2.63;;;18.40;71.50;;;;;;5000842;28;20130;-67
2022/05/04 00:21:14;;;;;;;7.13;2.38;;;18.20;72.50;;;;;;4975283;28;20051;-61
2022/05/04 00:27:53;;;;;;;8.15;2.30;;;18.30;76.10;;;;;;4965645;28;20053;-62
2022/05/04 00:30:40;;;;;;;9.05;2.47;;;18.10;74.00;;;;;;4975171;28;20042;-63
2022/05/04 00:44:49;;;;;;;5.10;2.03;;;18.30;72.60;;;;;;4956566;28;20158;-62
2022/05/04 00:47:42;;;;;;;5.78;1.92;;;18.30;72.50;;;;;;4949980;29;20119;-62
2022/05/04 00:50:40;;;;;;;5.50;1.92;;;18.30;72.50;;;;;;4961272;28;20039;-62
2022/05/04 00:53:46;;;;;;;8.10;2.35;;;18.30;72.50;;;;;;4974683;28;20047;-62
2022/05/04 00:56:33;;;;;;;6.85;2.30;;;18.20;72.50;;;;;;5030863;28;20067;-62
2022/05/04 00:59:22;;;;;;;5.45;2.30;;;18.20;76.20;;;;;;5033868;28;20053;-61
2022/05/04 01:02:42;;;;;;;6.22;2.10;;;18.20;73.40;;;;;;5055548;28;20045;-62
2022/05/04 01:09:27;;;;;;;5.30;2.15;;;18.30;76.00;;;;;;5016249;28;20045;-62
2022/05/04 01:12:12;;;;;;;7.90;1.90;;;18.20;72.40;;;;;;5017554;28;20048;-62
2022/05/04 01:15:16;;;;;;;5.07;2.05;;;18.20;72.40;;;;;;5035977;28;20045;-62
2022/05/04 01:18:04;;;;;;;;;;;18.10;72.50;;;;;;5018033;28;20053;-62
2022/05/04 01:20:49;;;;;;;7.93;2.30;;;18.20;76.10;;;;;;5016114;28;19921;-61
2022/05/04 01:23:37;;;;;;;6.68;2.05;;;18.40;76.30;;;;;;5017127;28;20045;-63
2022/05/04 01:30:32;;;;;;;6.13;1.88;;;18.20;72.50;;;;;;5034305;28;20036;-62
2022/05/04 01:33:13;;;;;;;7.03;2.00;;;18.20;72.60;;;;;;5034613;28;20495;-64
2022/05/04 01:36:04;;;;;;;7.60;2.03;;;18.20;76.10;;;;;;5037923;28;20076;-63
2022/05/04 01:50:11;;;;;;;5.78;2.00;;;18.10;76.00;;;;;;5030233;28;20052;-66
2022/05/04 01:53:10;;;;;;;6.70;1.85;;;18.20;71.30;;;;;;5032682;28;20064;-64
2022/05/04 01:56:17;;;;;;;6.30;1.90;;;18.20;76.10;;;;;;5035346;28;20383;-65
2022/05/04 02:02:59;;;;;;;5.75;1.90;;;18.20;76.00;;;;;;4986981;28;20041;-65
2022/05/04 02:05:46;;;;;;;6.00;2.05;;;18.00;76.00;;;;;;5034673;28;20049;-65
2022/05/04 02:08:37;;;;;;;6.45;1.98;;;18.40;76.10;;;;;;5016705;28;20450;-66
2022/05/04 02:11:06;;;;;;;7.82;2.20;;;18.10;72.90;;;;;;5015411;28;20061;-64
2022/05/04 02:13:57;;;;;;;6.55;1.80;;;18.10;76.00;;;;;;5013034;28;20050;-65
2022/05/04 02:16:51;;;;;;;5.57;1.98;;;18.20;76.10;;;;;;5014715;28;20125;-66
2022/05/04 02:23:29;;;;;;;6.32;1.90;;;18.30;72.40;;;;;;5026644;28;20060;-66
2022/05/04 02:26:17;;;;;;;6.85;1.98;;;17.90;75.80;;;;;;5016193;28;20049;-66
2022/05/04 02:29:13;;;;;;;4.15;1.70;;;18.30;73.80;;;;;;5033776;28;20057;-66
2022/05/04 02:32:20;;;;;;;5.63;2.28;;;18.20;76.20;;;;;;5026382;28;20499;-65
2022/05/04 02:38:29;;;;;;;5.15;1.80;;;18.10;72.30;;;;;;5053912;28;20136;-65
2022/05/04 02:41:06;;;;;;;6.18;1.70;;;18.20;73.80;;;;;;5019753;28;20520;-66
2022/05/04 02:43:33;;;;;;;4.72;1.80;;;18.10;75.90;;;;;;5052439;28;20040;-67
2022/05/04 02:46:18;;;;;;;8.15;2.22;;;18.10;75.80;;;;;;5052045;28;20402;-64
2022/05/04 02:49:02;;;;;;;6.72;2.42;;;17.90;73.60;;;;;;5053311;28;20048;-65
2022/05/04 02:51:37;;;;;;;5.72;2.03;;;18.10;75.90;;;;;;5035670;28;20516;-65
2022/05/04 02:54:03;;;;;;;6.43;2.50;;;17.90;73.20;;;;;;5035349;28;20544;-66
2022/05/04 02:56:30;;;;;;;7.50;2.20;;;18.00;72.90;;;;;;5034146;28;20077;-66
2022/05/04 03:03:00;;;;;;;7.45;2.55;;;18.10;76.10;;;;;;5009150;28;20455;-66
2022/05/04 03:06:04;;;;;;;8.10;2.22;;;18.00;75.90;;;;;;5053154;28;20495;-64
2022/05/04 03:12:35;;;;;;;6.78;1.83;;;18.10;75.90;;;;;;5054088;28;20578;-66
2022/05/04 03:23:08;;;;;;;5.50;1.70;;;17.90;75.80;;;;;;5056108;28;20061;-64
2022/05/04 03:29:45;;;;;;;7.32;2.13;;;17.80;75.80;;;;;;5035960;28;20112;-64
2022/05/04 03:32:49;;;;;;;5.47;1.75;;;18.00;75.80;;;;;;5057460;28;20128;-66
2022/05/04 03:35:36;;;;;;;8.10;2.50;;;18.00;75.80;;;;;;5057211;28;20037;-64
2022/05/04 03:41:57;;;;;;;4.07;1.55;;;18.00;75.80;;;;;;5054459;28;20044;-66
2022/05/04 03:44:23;;;;;;;6.43;2.55;;;17.90;75.90;;;;;;5039024;28;20080;-67
2022/05/04 03:46:54;;;;;;;5.93;1.90;;;17.90;75.70;;;;;;5028329;28;20076;-65
2022/05/04 03:49:22;;;;;;;6.38;1.77;;;17.90;72.70;;;;;;5038550;28;20517;-66
2022/05/04 03:51:54;;;;;;;6.80;1.80;;;18.00;76.30;;;;;;5056697;28;20056;-66
2022/05/04 03:54:21;;;;;;;4.78;1.63;;;17.80;75.80;;;;;;5039458;28;20502;-65
2022/05/04 03:56:46;;;;;;;4.88;1.80;;;18.00;75.70;;;;;;5036568;28;20083;-65
2022/05/04 03:59:12;;;;;;;6.20;2.00;;;18.20;75.90;;;;;;5056520;28;20428;-66
2022/05/04 04:01:39;;;;;;;6.43;1.60;;;18.00;72.10;;;;;;5056418;28;20044;-65
2022/05/04 04:04:15;;;;;;;5.68;1.80;;;17.90;72.80;;;;;;5056582;28;20057;-65
2022/05/04 04:06:41;;;;;;;5.00;1.90;;;18.10;76.00;;;;;;5055359;28;20037;-66
2022/05/04 04:09:07;;;;;;;6.80;2.35;;;17.80;75.60;;;;;;5056506;28;20089;-65
2022/05/04 04:11:33;;;;;;;5.18;2.10;;;17.90;72.70;;;;;;5055326;28;20048;-65
2022/05/04 04:13:59;;;;;;;4.13;1.40;;;17.90;75.70;;;;;;5056285;28;20045;-66
2022/05/04 04:16:25;;;;;;;4.97;1.90;;;18.10;76.20;;;;;;5056006;28;20048;-66
2022/05/04 04:18:51;;;;;;;6.90;2.15;;;17.70;75.50;;;;;;5053907;28;20119;-66
2022/05/04 04:24:00;;;;;;;4.82;1.67;;;18.00;75.70;;;;;;5056494;28;20045;-65
2022/05/04 04:26:29;;;;;;;8.25;1.95;;;17.90;75.60;;;;;;5055169;28;20168;-63
2022/05/04 04:28:55;;;;;;;5.90;1.63;;;18.00;72.40;;;;;;5004749;28;20443;-67
2022/05/04 04:31:21;;;;;;;6.00;1.90;;;17.90;75.70;;;;;;5054503;28;20123;-66
2022/05/04 04:33:47;;;;;;;6.57;2.10;;;18.00;72.90;;;;;;5055430;28;20505;-66
2022/05/04 04:36:13;;;;;;;5.45;1.70;;;17.90;75.70;;;;;;5038226;28;20112;-65
2022/05/04 04:38:38;;;;;;;5.65;1.90;;;18.00;72.70;;;;;;5006956;28;20482;-65
2022/05/04 04:41:04;;;;;;;7.80;1.98;;;18.00;73.20;;;;;;5038091;28;20047;-64
2022/05/04 04:43:30;;;;;;;8.10;2.22;;;18.20;75.90;;;;;;5055944;28;20037;-65
2022/05/04 04:46:49;;;;;;;8.13;1.80;;;18.00;75.70;;;;;;5055881;28;20383;-65
2022/05/04 04:49:55;;;;;;;5.18;1.70;;;17.80;75.70;;;;;;5041178;28;20049;-65
2022/05/04 04:52:21;;;;;;;6.15;2.13;;;17.80;75.90;;;;;;5011931;28;20049;-63
2022/05/04 04:54:47;;;;;;;6.97;2.35;;;17.90;76.30;;;;;;5026813;28;20060;-64
2022/05/04 04:57:13;;;;;;;6.93;1.65;;;18.00;75.70;;;;;;5035423;28;20445;-64
2022/05/04 04:59:43;;;;;;;3.90;1.40;;;18.20;75.90;;;;;;5035867;28;20454;-65
2022/05/04 05:02:14;;;;;;;5.70;1.53;;;17.90;75.60;;;;;;5016439;28;20091;-67
2022/05/04 05:04:43;;;;;;;5.68;1.70;;;17.90;75.70;;;;;;5034759;28;20125;-67
2022/05/04 05:07:09;;;;;;;6.28;2.00;;;18.10;75.80;;;;;;5034056;28;20038;-67
2022/05/04 05:09:44;;;;;;;4.50;1.88;;;18.00;75.90;;;;;;5005727;28;20429;-64
2022/05/04 05:12:10;;;;;;;4.63;1.80;;;18.10;76.00;;;;;;5029928;28;20053;-64
2022/05/04 05:18:20;;;;;;;6.47;2.03;;;18.30;76.00;;;;;;5031385;28;20052;-64
2022/05/04 05:21:04;;;;;;;6.13;1.73;;;18.10;73.30;;;;;;5012643;28;20064;-64
2022/05/04 05:23:30;;;;;;;4.40;1.60;;;17.90;75.80;;;;;;5044333;28;20076;-64
2022/05/04 05:25:58;;;;;;;7.00;1.75;;;18.10;72.70;;;;;;4998229;28;20100;-67
2022/05/04 05:28:25;;;;;;;5.28;2.00;;;;;;;;;;5017755;28;20100;-68
2022/05/04 05:31:09;;;;;;;4.82;1.83;;;18.10;75.80;;;;;;5035177;28;20433;-68
2022/05/04 05:33:50;;;;;;;5.25;1.73;;;18.00;73.70;;;;;;5034165;28;20051;-68
2022/05/04 05:37:05;;;;;;;7.43;1.77;;;18.20;75.80;;;;;;5032982;28;20053;-68
2022/05/04 05:39:47;;;;;;;6.22;2.22;;;18.40;76.00;;;;;;5052391;28;20060;-69
2022/05/04 05:42:13;;;;;;;5.47;1.65;;;18.30;72.10;;;;;;5050018;28;20053;-71
2022/05/04 05:45:04;;;;;;;6.75;2.00;;;18.50;75.90;;;;;;5032977;28;20053;-68
2022/05/04 05:52:08;;;;;;;4.53;1.70;;;18.30;76.10;;;;;;5052833;28;20095;-68
2022/05/04 05:55:24;;;;;;;7.15;1.90;;;18.40;75.80;;;;;;5053201;28;20457;-66
2022/05/04 05:57:50;;;;;;;5.97;1.90;;;18.50;72.30;;;;;;5053196;28;20041;-67
2022/05/04 06:00:19;;;;;;;7.93;1.90;;;18.40;75.80;;;;;;5051467;28;20059;-68
2022/05/04 06:03:03;;;;;;;6.25;2.17;;;18.60;75.90;;;;;;5054558;28;20041;-67
2022/05/04 06:05:47;;;;;;;6.63;1.65;;;18.50;71.80;;;;;;5054004;28;20055;-66
2022/05/04 06:08:22;;;;;;;5.50;1.67;;;18.40;75.60;;;;;;5035098;28;20478;-66
2022/05/04 06:14:18;;;;;;;6.80;1.80;;;18.40;75.80;;;;;;5053936;28;20053;-68
2022/05/04 06:20:47;;;;;;;4.43;1.70;;;18.50;75.80;;;;;;5050609;28;20036;-65
2022/05/04 06:23:41;;;;;;;5.45;1.88;;;18.50;75.80;;;;;;5035210;28;20052;-65
2022/05/04 06:26:13;;;;;;;5.03;1.90;;;18.40;75.60;;;;;;5054273;28;20449;-65
2022/05/04 06:28:57;;;;;;;6.22;1.55;;;18.60;75.50;;;;;;5054012;28;20125;-65
2022/05/04 06:38:57;;;;;;;5.03;1.70;;;18.40;71.90;;;;;;5052180;28;20048;-65
2022/05/04 06:41:48;;;;;;;4.80;1.70;;;18.60;75.80;;;;;;5053542;28;20055;-65
2022/05/04 06:44:15;;;;;;;3.85;1.55;;;18.40;75.40;;;;;;5044003;28;20421;-65
2022/05/04 06:51:05;;;;;;;4.82;1.85;;;18.70;75.60;;;;;;5039681;28;20036;-65
2022/05/04 06:56:40;;;;;;;5.75;1.88;;;18.80;75.80;;;;;;5037961;28;20317;-65
2022/05/04 06:59:06;;;;;;;6.53;1.90;;;18.80;75.70;;;;;;5035630;28;20045;-65
2022/05/04 07:02:07;;;;;;;7.78;1.98;;;18.70;75.50;;;;;;5019116;28;20119;-65
2022/05/04 07:05:14;;;;;;;5.45;1.85;;;18.80;75.50;;;;;;5053409;28;20382;-64
2022/05/04 07:08:00;;;;;;;6.00;1.80;;;18.70;75.50;;;;;;5050729;28;20102;-65
2022/05/04 07:17:23;;;;;;;4.72;1.70;;;18.80;75.50;;;;;;5023070;28;20174;-65
2022/05/04 07:20:04;;;;;;;5.32;2.30;;;19.00;75.60;;;;;;5053320;28;20040;-65
2022/05/04 07:22:33;;;;;;;5.47;1.80;;;18.90;75.40;;;;;;5012205;28;20107;-66
2022/05/04 07:24:59;;;;;;;4.97;1.70;;;18.70;75.20;;;;;;5023052;28;20071;-67
2022/05/04 07:27:25;;;;;;;8.13;2.20;;;19.10;75.60;;;;;;5028483;28;20045;-68
2022/05/04 07:29:50;;;;;;;4.80;1.85;;;18.80;71.90;;;;;;5053076;28;20041;-67
2022/05/04 07:32:30;;;;;;;4.65;1.63;;;19.00;75.40;;;;;;5053199;28;20044;-66
2022/05/04 07:39:02;;;;;;;4.20;1.80;;;19.00;71.90;;;;;;5043363;28;20099;-67
2022/05/04 07:44:47;;;;;;;6.47;2.05;;;19.20;71.90;;;;;;5041852;28;20049;-69
2022/05/04 07:48:02;;;;;;;5.28;1.90;;;19.30;75.40;;;;;;5032831;28;20037;-69
2022/05/04 07:50:48;;;;;;;7.60;1.85;;;19.20;75.30;;;;;;5033123;28;20053;-67
2022/05/04 07:53:26;;;;;;;7.95;2.10;;;19.10;74.90;;;;;;5030846;28;20551;-64
2022/05/04 07:56:32;;;;;;;8.32;2.63;;;19.20;75.10;;;;;;5032803;28;20046;-67
2022/05/04 07:59:13;;;;;;;4.93;2.10;;;19.40;75.30;;;;;;5032837;28;20056;-67
2022/05/04 08:04:50;;;;;;;5.85;1.95;;;19.20;71.20;;;;;;5014891;28;20049;-66
2022/05/04 08:08:09;;;;;;;9.68;2.63;;;19.30;74.60;;;;;;5015162;28;20040;-65
2022/05/04 08:11:00;;;;;;;6.97;2.20;;;19.20;74.40;;;;;;5031047;28;20084;-67
2022/05/04 08:13:33;;;;;;;9.68;1.98;;;19.20;69.80;;;;;;5056547;28;20048;-67
2022/05/04 08:16:11;;;;;;;7.10;2.00;;;19.10;74.10;;;;;;5051816;28;20052;-67
2022/05/04 08:19:30;;;;;;;7.05;2.25;;;19.00;73.90;;;;;;5047381;28;20553;-66
2022/05/04 08:25:50;;;;;;;6.97;2.03;;;19.30;70.20;;;;;;5055862;28;20540;-66
2022/05/04 08:28:53;;;;;;;6.50;2.17;;;19.00;73.70;;;;;;5033405;28;20508;-67
2022/05/04 08:31:21;;;;;;;7.40;1.75;;;19.20;70.00;;;;;;4998674;28;20491;-66
2022/05/04 08:33:56;;;;;;;5.32;2.53;;;19.10;68.80;;;;;;5015814;28;20068;-67
2022/05/04 08:39:54;;;;;;;7.35;2.20;;;19.30;73.50;;;;;;5017792;28;20049;-65
2022/05/04 08:43:13;;;;;;;7.35;2.25;;;19.00;73.30;;;;;;5021965;28;20103;-65
2022/05/04 08:46:04;;;;;;;7.22;2.10;;;19.20;69.70;;;;;;5038354;28;20398;-64
2022/05/04 08:48:42;;;;;;;6.88;2.28;;;19.30;73.40;;;;;;5073227;28;20097;-66
2022/05/04 08:51:08;;;;;;;6.68;2.15;;;19.40;73.30;;;;;;5057652;28;20052;-68
2022/05/04 08:53:49;;;;;;;7.00;2.42;;;19.20;70.50;;;;;;5075318;28;20044;-67
2022/05/04 09:03:21;;;;;;;5.00;1.80;;;19.20;73.20;;;;;;5057313;28;20109;-64
2022/05/04 09:10:02;;;;;;;8.02;2.05;;;19.40;73.10;;;;;;5080171;28;20034;-64
2022/05/04 09:12:50;;;;;;;5.38;2.13;;;19.30;69.30;;;;;;5054215;28;20052;-64
2022/05/04 09:19:11;;;;;;;9.65;2.13;;;19.20;69.20;;;;;;5072730;28;20048;-63
2022/05/04 09:21:49;;;;;;;7.93;2.53;;;19.20;72.80;;;;;;5073516;28;20070;-68
2022/05/04 09:24:35;;;;;;;10.45;2.45;;;19.20;72.80;;;;;;5075159;28;20374;-68
2022/05/04 09:27:04;;;;;;;6.97;2.70;;;19.40;73.00;;;;;;5068985;28;20048;-69
2022/05/04 09:29:42;;;;;;;10.35;2.53;;;19.50;73.10;;;;;;5074588;28;20182;-70
2022/05/04 09:32:49;;;;;;;7.15;2.42;;;19.50;73.20;;;;;;5054679;28;20055;-67
2022/05/04 09:35:21;;;;;;;8.13;2.22;;;19.40;73.20;;;;;;5056773;28;20084;-66
2022/05/04 09:45:55;;;;;;;7.60;2.38;;;19.40;73.40;;;;;;5035013;28;20088;-67
2022/05/04 09:55:43;;;;;;;5.53;2.08;;;19.60;73.60;;;;;;5019743;28;20052;-69
2022/05/04 09:59:05;;;;;;;6.32;2.40;;;19.70;73.70;;;;;;5010927;28;20059;-68
2022/05/04 10:01:39;;;;;;;8.00;2.10;;;19.50;73.80;;;;;;5015916;28;20104;-66
2022/05/04 10:04:21;;;;;;;7.00;2.58;;;19.60;73.70;;;;;;4996519;28;20109;-68
2022/05/04 10:07:27;;;;;;;9.68;2.78;;;19.60;73.60;;;;;;5018609;28;20041;-69
2022/05/04 10:14:13;;;;;;;4.80;2.00;;;19.70;73.60;;;;;;5037688;28;20036;-68
2022/05/04 10:17:17;;;;;;;6.03;2.53;;;19.80;70.80;;;;;;5050055;28;20057;-68
2022/05/04 10:20:32;;;;;;;4.88;2.47;;;19.80;73.60;;;;;;5016754;28;20405;-68
2022/05/04 10:23:20;;;;;;;6.13;2.38;;;19.70;73.40;;;;;;5026801;28;20052;-68
2022/05/04 10:32:38;;;;;;;7.30;2.53;;;19.90;73.40;;;;;;5022227;28;20123;-69
2022/05/04 10:35:38;;;;;;;6.97;2.45;;;20.20;73.70;;;;;;5022527;28;20457;-69
2022/05/04 10:46:17;;;;;;;7.18;2.78;;;20.00;73.30;;;;;;5052824;28;20143;-69
2022/05/04 10:49:15;;;;;;;6.90;2.40;;;20.30;69.20;;;;;;5052458;28;20114;-68
2022/05/04 11:02:20;;;;;;;6.32;2.45;;;20.30;73.50;;;;;;5052971;28;20088;-65
2022/05/04 11:05:18;;;;;;;6.28;2.45;;;20.40;73.40;;;;;;5051402;28;20083;-65
2022/05/04 11:11:56;;;;;;;6.22;2.50;;;20.40;73.30;;;;;;5050570;28;20045;-65
2022/05/04 11:17:56;;;;;;;3.92;2.10;;;20.60;73.60;;;;;;5051840;28;20073;-66
2022/05/04 11:24:12;;;;;;;7.88;2.55;;;20.40;73.40;;;;;;5040799;28;20080;-65
2022/05/04 11:27:15;;;;;;;6.68;2.65;;;20.50;72.20;;;;;;5033599;28;20100;-66
2022/05/04 11:29:47;;;;;;;5.53;2.13;;;20.70;72.00;;;;;;5015518;28;20108;-66
2022/05/04 11:32:50;;;;;;;5.93;2.17;;;20.80;73.60;;;;;;5032943;28;20489;-65
2022/05/04 11:35:36;;;;;;;;;;;20.80;69.80;;;;;;5048904;28;20055;-65
2022/05/04 11:38:23;;;;;;;4.63;2.13;;;20.60;73.30;;;;;;5047739;28;19921;-65
2022/05/04 11:41:40;;;;;;;5.90;2.15;;;20.70;73.20;;;;;;5051676;28;20102;-65
2022/05/04 11:44:31;;;;;;;8.85;2.40;;;20.60;73.00;;;;;;5035674;28;20059;-65
2022/05/04 11:47:42;;;;;;;6.07;2.30;;;20.90;72.90;;;;;;5037548;28;20374;-66
2022/05/04 11:53:54;;;;;;;13.02;2.72;;;21.00;72.90;;;;;;5054359;28;20123;-67
2022/05/04 11:56:54;;;;;;;14.52;2.53;;;20.90;72.80;;;;;;5053349;28;20139;-68
2022/05/04 12:06:38;;;;;;;8.85;2.95;;;20.80;73.10;;;;;;5045109;28;20098;-65
2022/05/04 12:09:19;;;;;;;10.50;2.65;;;20.80;69.50;;;;;;5049998;28;20048;-66
2022/05/04 12:16:05;;;;;;;6.75;2.20;;;20.90;70.00;;;;;;5056294;28;20053;-66
2022/05/04 12:19:23;;;;;;;8.55;2.80;;;20.80;73.60;;;;;;5036090;28;20045;-66
2022/05/04 12:25:41;;;;;;;6.00;2.67;;;20.90;73.60;;;;;;5036388;28;20057;-66
2022/05/04 12:28:08;;;;;;;9.25;2.50;;;20.80;69.60;;;;;;5036736;28;20056;-67
2022/05/04 12:33:45;;;;;;;9.20;2.35;;;20.80;70.70;;;;;;5067874;28;20501;-66
2022/05/04 12:36:19;;;;;;;10.75;2.63;;;20.70;70.80;;;;;;5076701;28;20442;-66
2022/05/04 12:38:47;;;;;;;8.13;2.80;;;20.90;73.50;;;;;;5075842;28;20044;-67
2022/05/04 12:41:17;;;;;;;7.60;2.70;;;20.90;73.60;;;;;;5058125;28;20467;-66
2022/05/04 12:44:10;;;;;;;6.80;2.47;;;20.70;71.10;;;;;;5041761;28;20048;-68
2022/05/04 12:46:54;;;;;;;12.13;2.80;;;20.80;73.70;;;;;;5075649;28;20044;-66
2022/05/04 12:49:23;;;;;;;6.53;2.50;;;21.10;71.40;;;;;;5057925;28;20052;-66
2022/05/04 12:51:51;;;;;;;7.05;2.13;;;20.70;73.50;;;;;;5076299;28;20050;-67
2022/05/04 12:54:37;;;;;;;5.85;2.53;;;20.70;73.80;;;;;;5046678;28;20128;-65
2022/05/04 12:57:15;;;;;;;9.68;2.60;;;20.90;73.60;;;;;;5040934;28;20047;-65
2022/05/04 12:59:41;;;;;;;6.53;2.50;;;20.80;73.50;;;;;;5075707;28;20048;-65
2022/05/04 13:02:15;;;;;;;7.32;2.25;;;20.90;70.00;;;;;;5075485;28;20540;-66
2022/05/04 13:05:00;;;;;;;8.90;2.72;;;20.80;73.40;;;;;;5057519;28;20048;-65
2022/05/04 13:22:08;;;;;;;53.83;4.88;;;20.90;72.40;;;;;;5036996;28;20084;-67
2022/05/04 13:24:44;;;;;;;42.08;5.10;;;20.70;72.30;;;;;;5047436;28;20525;-66
2022/05/04 13:27:44;;;;;;;24.30;3.55;;;20.60;72.50;;;;;;5072088;28;20055;-65
2022/05/04 13:34:02;;;;;;;18.25;3.67;;;20.60;72.00;;;;;;5010034;28;20403;-65
2022/05/04 13:36:41;;;;;;;13.95;3.53;;;20.50;72.20;;;;;;4993940;28;20140;-65
2022/05/04 13:39:28;;;;;;;7.50;3.20;;;20.40;72.20;;;;;;4992812;28;20061;-66
2022/05/04 13:46:21;;;;;;;11.40;2.60;;;20.50;72.10;;;;;;4993219;28;20129;-65
2022/05/04 13:56:39;;;;;;;6.50;2.72;;;20.40;72.10;;;;;;4970608;28;20063;-65
2022/05/04 14:11:07;;;;;;;8.77;3.05;;;20.00;71.70;;;;;;5041949;28;20049;-65
2022/05/04 14:16:53;;;;;;;9.23;2.83;;;20.20;71.90;;;;;;5073922;28;20056;-65
2022/05/04 14:23:49;;;;;;;8.10;2.80;;;20.00;71.80;;;;;;5074199;28;20584;-65
2022/05/04 14:33:31;;;;;;;7.00;2.83;;;;;;;;;;5066648;28;20381;-70
2022/05/04 14:36:01;;;;;;;8.75;3.47;;;19.80;72.10;;;;;;5052988;28;20127;-66
2022/05/04 14:42:11;;;;;;;8.10;3.25;;;19.50;71.80;;;;;;5056263;28;20075;-65
2022/05/04 14:44:37;;;;;;;8.75;2.80;;;19.50;71.80;;;;;;5072244;28;20413;-66
2022/05/04 14:47:31;;;;;;;10.23;3.45;;;19.70;71.90;;;;;;5072311;28;20075;-66
2022/05/04 14:53:56;;;;;;;8.25;2.80;;;19.60;71.80;;;;;;5073692;28;20035;-65
2022/05/04 14:56:22;;;;;;;11.27;2.95;;;19.60;71.80;;;;;;5073329;28;20521;-64
2022/05/04 14:58:48;;;;;;;9.13;2.80;;;19.80;71.80;;;;;;5073492;28;20433;-64
2022/05/04 15:01:14;;;;;;;7.95;2.80;;;19.60;71.80;;;;;;5055384;28;20045;-66
2022/05/04 15:06:36;;;;;;;7.50;2.75;;;19.70;71.80;;;;;;5044621;28;20505;-67
2022/05/04 15:16:18;;;;;;;8.57;2.65;;;19.60;71.80;;;;;;5073713;28;20052;-64
2022/05/04 15:22:14;;;;;;;7.22;2.70;;;19.70;71.80;;;;;;5077458;28;20098;-65
2022/05/04 15:31:35;;;;;;;9.13;2.30;;;20.00;72.20;;;;;;5097285;28;20051;-64
2022/05/04 15:34:02;;;;;;;10.57;2.60;;;19.60;72.20;;;;;;5097106;28;20109;-64
2022/05/04 15:36:44;;;;;;;8.35;2.63;;;19.80;72.30;;;;;;5097091;28;20081;-64
2022/05/04 15:39:47;;;;;;;6.68;2.47;;;19.80;72.70;;;;;;5064450;28;20166;-64
2022/05/04 15:42:38;;;;;;;8.52;2.75;;;19.70;73.30;;;;;;5076833;28;20387;-65
2022/05/04 15:45:16;;;;;;;6.10;2.20;;;19.80;73.60;;;;;;5058694;28;20132;-64
2022/05/04 15:48:33;;;;;;;6.80;2.75;;;19.90;73.60;;;;;;5077490;28;20051;-64
2022/05/04 15:55:49;;;;;;;8.23;2.42;;;19.70;70.90;;;;;;5076551;28;20082;-65
2022/05/04 15:58:18;;;;;;;9.10;2.70;;;19.80;73.80;;;;;;5059133;28;20501;-65
2022/05/04 16:04:49;;;;;;;47.72;17.63;;;19.60;73.40;;;;;;5076303;28;20048;-65
2022/05/04 16:07:41;;;;;;;65.90;24.42;;;19.80;73.60;;;;;;5076164;28;20070;-65
2022/05/04 16:10:34;;;;;;;59.25;22.08;;;19.70;73.60;;;;;;5015143;28;20414;-65
2022/05/04 16:13:24;;;;;;;57.45;22.60;;;19.80;73.80;;;;;;5014417;28;20085;-65
2022/05/04 16:16:09;;;;;;;55.35;19.88;;;19.70;73.80;;;;;;5033154;28;20049;-64
2022/05/04 16:21:49;;;;;;;47.03;17.55;;;19.70;73.80;;;;;;5034042;28;20045;-65
2022/05/04 16:24:39;;;;;;;48.38;18.05;;;19.80;74.00;;;;;;5017420;28;20095;-65
2022/05/04 16:27:35;;;;;;;42.13;15.75;;;19.50;69.00;;;;;;5016875;28;20064;-65
2022/05/04 16:30:19;;;;;;;38.60;14.18;;;19.60;73.90;;;;;;5034689;28;20137;-65
2022/05/04 16:33:05;;;;;;;41.80;14.73;;;19.30;73.90;;;;;;5032908;28;20048;-65
2022/05/04 16:35:30;;;;;;;38.38;13.68;;;19.70;74.10;;;;;;5033759;28;20140;-65
2022/05/04 16:38:22;;;;;;;35.83;12.57;;;19.30;73.80;;;;;;5012727;28;20542;-65
2022/05/04 16:40:49;;;;;;;31.55;12.18;;;19.60;74.00;;;;;;5048523;28;20059;-65
2022/05/04 16:43:18;;;;;;;30.65;11.43;;;19.30;73.90;;;;;;5069241;28;20057;-64
2022/05/04 16:53:39;;;;;;;29.85;10.30;;;19.50;74.20;;;;;;5075647;28;20048;-65
2022/05/04 16:56:19;;;;;;;31.60;9.73;;;19.70;74.20;;;;;;5057451;28;20139;-67
2022/05/04 16:58:45;;;;;;;25.98;9.98;;;19.70;74.30;;;;;;5075674;28;20051;-68
2022/05/04 17:01:20;;;;;;;24.98;9.05;;;19.60;74.20;;;;;;5075599;28;20039;-70
2022/05/04 17:04:41;;;;;;;25.63;8.85;;;19.60;74.30;;;;;;5075513;28;20052;-67
2022/05/04 17:07:32;;;;;;;19.98;8.30;;;19.60;74.30;;;;;;5057497;28;20044;-66
2022/05/04 17:10:34;;;;;;;22.35;8.25;;;19.70;74.30;;;;;;5057110;28;20128;-68
2022/05/04 17:16:34;;;;;;;22.02;6.75;;;19.30;71.60;;;;;;5075004;28;20123;-67
2022/05/04 17:19:24;;;;;;;20.15;6.63;;;19.20;71.20;;;;;;5075287;28;20069;-66
2022/05/04 17:22:14;;;;;;;16.95;5.90;;;19.60;74.20;;;;;;5075772;28;20036;-69
2022/05/04 17:25:11;;;;;;;15.80;6.00;;;19.40;73.90;;;;;;5075403;28;20086;-68
2022/05/04 17:31:31;;;;;;;16.77;5.90;;;19.50;74.10;;;;;;5074995;28;20041;-67
2022/05/04 17:37:03;;;;;;;14.07;5.70;;;19.50;73.90;;;;;;5074553;28;20539;-69
2022/05/04 17:39:50;;;;;;;15.10;5.05;;;19.20;73.70;;;;;;5074769;28;20053;-66
2022/05/04 17:42:49;;;;;;;13.02;5.00;;;19.30;73.80;;;;;;5057159;28;20106;-66
2022/05/04 17:46:05;;;;;;;13.38;4.45;;;19.30;73.70;;;;;;4993255;28;20054;-68
2022/05/04 17:48:57;;;;;;;12.55;4.90;;;19.50;73.80;;;;;;4984002;28;20073;-66
2022/05/04 17:51:24;;;;;;;11.65;4.22;;;19.30;73.80;;;;;;4973687;28;20106;-65
2022/05/04 17:54:40;;;;;;;13.27;4.90;;;19.40;73.80;;;;;;4973472;28;20469;-67
2022/05/04 17:57:56;;;;;;;10.00;4.20;;;19.30;73.80;;;;;;5001533;28;20112;-66
2022/05/04 18:00:48;;;;;;;10.80;4.30;;;19.40;73.90;;;;;;5012469;28;20121;-70
2022/05/04 18:03:35;;;;;;;10.30;3.80;;;19.20;73.80;;;;;;4979991;28;20058;-67
2022/05/04 18:06:23;;;;;;;12.45;4.50;;;19.50;73.90;;;;;;5012241;28;20073;-71
2022/05/04 18:09:04;;;;;;;12.18;4.05;;;19.20;73.70;;;;;;4987997;28;20051;-69
2022/05/04 18:11:35;;;;;;;10.13;3.65;;;19.10;73.70;;;;;;4973578;28;20440;-67
2022/05/04 18:14:22;;;;;;;10.50;3.40;;;19.20;69.00;;;;;;4987296;28;20035;-67
2022/05/04 18:17:08;;;;;;;9.77;3.95;;;19.00;73.60;;;;;;4992526;28;20097;-66
2022/05/04 18:20:12;;;;;;;8.77;3.60;;;19.10;73.80;;;;;;4993072;28;20050;-70
2022/05/04 18:22:38;;;;;;;10.02;3.20;;;19.00;73.70;;;;;;4978555;28;20060;-66
2022/05/04 18:25:23;;;;;;;9.55;3.25;;;19.00;73.70;;;;;;5035978;28;20132;-69
2022/05/04 18:28:08;;;;;;;9.68;3.22;;;19.10;73.80;;;;;;5036158;28;20052;-67
2022/05/04 18:30:52;;;;;;;9.32;3.03;;;19.00;73.70;;;;;;5064265;28;20033;-67
2022/05/04 18:33:27;;;;;;;5.70;2.42;;;19.10;69.10;;;;;;5073917;28;20040;-66
2022/05/04 18:36:29;;;;;;;7.63;2.55;;;19.00;73.80;;;;;;5055577;28;20052;-69
2022/05/04 18:39:22;;;;;;;6.70;3.13;;;19.10;73.90;;;;;;5073793;28;20048;-67
2022/05/04 18:42:32;;;;;;;9.05;2.72;;;18.80;73.70;;;;;;5053725;28;20051;-69
2022/05/04 18:45:02;;;;;;;7.85;2.72;;;19.00;73.90;;;;;;5035505;28;20512;-68
2022/05/04 18:48:24;;;;;;;7.80;3.03;;;18.80;69.00;;;;;;5063427;28;20485;-69
2022/05/04 18:51:02;;;;;;;5.97;2.75;;;18.70;73.80;;;;;;5072423;28;20071;-68
2022/05/04 18:53:30;;;;;;;9.23;3.00;;;18.80;73.80;;;;;;5055647;28;20082;-66
2022/05/04 18:56:35;;;;;;;;;;;19.00;70.90;;;;;;5056920;28;20059;-67
2022/05/04 18:59:04;;;;;;;6.90;2.88;;;18.70;73.80;;;;;;5073836;28;20014;-68
2022/05/04 19:05:44;;;;;;;;;;;;;;;;;;;;;
2022/05/04 19:24:04;;;;;;;11.50;2.83;;;18.50;73.80;;;;;;5052933;28;20045;-66
2022/05/04 19:26:45;;;;;;;10.95;3.05;;;18.70;74.00;;;;;;5053148;28;20045;-69
2022/05/04 19:29:18;;;;;;;10.02;2.83;;;18.60;74.00;;;;;;5035306;28;20045;-69
2022/05/04 19:32:02;;;;;;;8.43;2.83;;;18.40;73.70;;;;;;5053126;28;20461;-70
2022/05/04 20:11:45;;;;;;;8.77;2.45;;;18.30;74.50;;;;;;5059063;28;20119;-68
2022/05/04 20:18:55;;;;;;;6.50;2.50;;;18.00;74.40;;;;;;4995517;28;20551;-65
2022/05/04 20:21:33;;;;;;;7.20;2.65;;;18.10;74.50;;;;;;4978561;28;20058;-65
2022/05/04 20:24:17;;;;;;;8.50;2.63;;;18.10;74.60;;;;;;4994820;28;20042;-64
2022/05/04 20:27:02;;;;;;;6.38;2.50;;;18.00;71.80;;;;;;4994793;28;20100;-64
2022/05/04 20:30:06;;;;;;;8.27;2.55;;;18.00;74.60;;;;;;4963339;28;20058;-66
2022/05/04 20:32:52;;;;;;;6.07;2.35;;;18.20;74.90;;;;;;4994589;28;20054;-64
2022/05/04 20:35:39;;;;;;;6.35;2.60;;;18.20;74.70;;;;;;4994578;28;20097;-63
2022/05/04 20:41:27;;;;;;;7.32;2.40;;;18.20;71.60;;;;;;4994408;28;20057;-64
2022/05/04 20:44:30;;;;;;;9.02;2.55;;;18.10;75.20;;;;;;4978501;28;20395;-64
2022/05/04 20:47:21;;;;;;;;;;;18.10;71.80;;;;;;4994845;28;20058;-64
2022/05/04 20:57:52;;;;;;;7.80;2.70;;;18.00;76.10;;;;;;5016453;28;20053;-64
2022/05/04 21:00:22;;;;;;;6.68;2.45;;;18.20;76.50;;;;;;5014848;28;20129;-64
2022/05/04 21:06:51;;;;;;;5.60;2.15;;;18.10;76.70;;;;;;5015902;28;20060;-64